createdAt,value
2018-12-05T00:00:30.092Z,22.60
2018-12-05T00:02:59.481Z,22.63
2018-12-05T00:05:28.917Z,22.62
2018-12-05T00:07:58.317Z,22.60
2018-12-05T00:10:27.727Z,22.62
2018-12-05T00:12:57.109Z,22.61
2018-12-05T00:15:26.530Z,22.59
2018-12-05T00:17:55.927Z,22.58
2018-12-05T00:20:25.382Z,22.55
2018-12-05T00:22:54.801Z,22.56
2018-12-05T00:25:24.225Z,22.56
2018-12-05T00:27:53.615Z,22.54
2018-12-05T00:30:23.024Z,22.54
2018-12-05T00:32:52.475Z,22.53
2018-12-05T00:35:21.953Z,22.51
2018-12-05T00:37:51.389Z,22.51
2018-12-05T00:40:20.817Z,22.51
2018-12-05T00:42:50.218Z,22.50
2018-12-05T00:45:19.620Z,22.49
2018-12-05T00:47:49.044Z,22.49
2018-12-05T00:50:18.425Z,22.48
2018-12-05T00:52:47.804Z,22.46
2018-12-05T00:55:17.195Z,22.47
2018-12-05T00:57:46.576Z,22.46
2018-12-05T01:00:15.972Z,22.46
2018-12-05T01:02:46.252Z,22.43
2018-12-05T01:05:15.668Z,22.44
2018-12-05T01:07:45.092Z,22.43
2018-12-05T01:10:14.484Z,22.43
2018-12-05T01:12:43.898Z,22.42
2018-12-05T01:15:14.336Z,22.40
2018-12-05T01:17:43.761Z,22.41
2018-12-05T01:20:13.164Z,22.39
2018-12-05T01:22:42.596Z,22.39
2018-12-05T01:25:11.987Z,22.39
2018-12-05T01:27:41.440Z,22.38
2018-12-05T01:30:11.354Z,22.38
2018-12-05T01:32:40.748Z,22.37
2018-12-05T01:35:10.220Z,22.36
2018-12-05T01:37:39.600Z,22.35
2018-12-05T01:40:09.061Z,22.36
2018-12-05T01:42:38.467Z,22.34
2018-12-05T01:45:07.895Z,22.33
2018-12-05T01:47:37.293Z,22.33
2018-12-05T01:50:07.800Z,22.31
2018-12-05T01:52:37.197Z,22.29
2018-12-05T01:55:06.616Z,22.31
2018-12-05T01:57:36.031Z,22.29
2018-12-05T02:00:06.144Z,22.28
2018-12-05T02:02:35.565Z,22.29
2018-12-05T02:05:04.972Z,22.28
2018-12-05T02:07:34.356Z,22.28
2018-12-05T02:10:03.820Z,22.27
2018-12-05T02:12:33.201Z,22.27
2018-12-05T02:15:02.600Z,22.25
2018-12-05T02:17:31.987Z,22.26
2018-12-05T02:20:01.390Z,22.25
2018-12-05T02:22:30.792Z,22.23
2018-12-05T02:25:00.189Z,22.22
2018-12-05T02:27:34.523Z,22.23
2018-12-05T02:30:09.633Z,22.22
2018-12-05T02:32:39.024Z,22.22
2018-12-05T02:35:09.509Z,22.22
2018-12-05T02:37:39.205Z,22.21
2018-12-05T02:40:09.776Z,22.21
2018-12-05T02:42:39.157Z,22.20
2018-12-05T02:45:09.010Z,22.20
2018-12-05T02:47:38.395Z,22.19
2018-12-05T02:50:09.730Z,22.19
2018-12-05T02:52:39.368Z,22.16
2018-12-05T02:55:08.764Z,22.16
2018-12-05T02:57:38.461Z,22.16
2018-12-05T03:00:07.968Z,22.15
2018-12-05T03:02:37.368Z,22.14
2018-12-05T03:05:07.925Z,22.12
2018-12-05T03:07:37.569Z,22.13
2018-12-05T03:10:07.021Z,22.12
2018-12-05T03:12:36.452Z,22.12
2018-12-05T03:15:06.209Z,22.11
2018-12-05T03:17:35.623Z,22.11
2018-12-05T03:20:05.480Z,22.11
2018-12-05T03:22:34.960Z,22.09
2018-12-05T03:25:04.360Z,22.09
2018-12-05T03:27:33.853Z,22.09
2018-12-05T03:30:03.264Z,22.09
2018-12-05T03:32:34.706Z,22.07
2018-12-05T03:35:04.253Z,22.06
2018-12-05T03:37:33.661Z,22.05
2018-12-05T03:40:03.077Z,22.06
2018-12-05T03:42:34.449Z,22.05
2018-12-05T03:45:04.036Z,22.04
2018-12-05T03:47:33.452Z,22.04
2018-12-05T03:50:03.329Z,22.03
2018-12-05T03:52:32.738Z,22.02
2018-12-05T03:55:02.141Z,21.99
2018-12-05T03:57:31.529Z,22.00
2018-12-05T04:00:00.908Z,22.00
2018-12-05T04:02:30.361Z,21.99
2018-12-05T04:04:59.741Z,21.99
2018-12-05T04:07:29.166Z,21.98
2018-12-05T04:09:58.546Z,21.99
2018-12-05T04:12:27.954Z,21.98
2018-12-05T04:14:57.394Z,21.98
2018-12-05T04:17:26.820Z,21.96
2018-12-05T04:19:56.266Z,21.97
2018-12-05T04:22:25.697Z,21.97
2018-12-05T04:24:55.279Z,21.96
2018-12-05T04:27:26.885Z,21.95
2018-12-05T04:29:56.334Z,21.96
2018-12-05T04:32:25.726Z,21.95
2018-12-05T04:34:55.183Z,21.96
2018-12-05T04:37:24.586Z,21.96
2018-12-05T04:39:54.012Z,21.97
2018-12-05T04:42:23.438Z,21.97
2018-12-05T04:44:52.905Z,21.97
2018-12-05T04:47:22.331Z,21.97
2018-12-05T04:49:51.758Z,21.97
2018-12-05T04:52:21.144Z,21.96
2018-12-05T04:54:50.565Z,21.97
2018-12-05T04:57:19.968Z,21.95
2018-12-05T04:59:49.881Z,21.93
2018-12-05T05:02:19.275Z,21.93
2018-12-05T05:04:55.321Z,21.91
2018-12-05T05:07:24.720Z,21.88
2018-12-05T05:09:54.272Z,21.89
2018-12-05T05:12:23.670Z,21.88
2018-12-05T05:14:53.049Z,21.90
2018-12-05T05:17:22.452Z,21.89
2018-12-05T05:19:51.835Z,21.88
2018-12-05T05:22:21.216Z,21.89
2018-12-05T05:24:50.654Z,21.89
2018-12-05T05:27:20.044Z,21.89
2018-12-05T05:29:49.446Z,21.90
2018-12-05T05:32:18.904Z,21.90
2018-12-05T05:34:48.328Z,21.91
2018-12-05T05:37:17.728Z,21.90
2018-12-05T05:39:48.168Z,21.90
2018-12-05T05:42:17.576Z,21.89
2018-12-05T05:44:47.037Z,21.91
2018-12-05T05:47:16.461Z,21.93
2018-12-05T05:49:45.910Z,21.93
2018-12-05T05:52:15.296Z,21.93
2018-12-05T05:54:44.713Z,21.95
2018-12-05T05:57:14.121Z,21.95
2018-12-05T05:59:43.528Z,21.94
2018-12-05T06:02:12.920Z,21.89
2018-12-05T06:04:42.364Z,21.84
2018-12-05T06:07:11.772Z,21.78
2018-12-05T06:09:41.153Z,21.73
2018-12-05T06:12:10.528Z,21.68
2018-12-05T06:14:39.952Z,21.66
2018-12-05T06:17:09.389Z,21.59
2018-12-05T06:19:38.806Z,21.56
2018-12-05T06:22:08.241Z,21.54
2018-12-05T06:24:37.662Z,21.54
2018-12-05T06:27:07.063Z,21.57
2018-12-05T06:29:36.492Z,21.59
2018-12-05T06:32:05.888Z,21.62
2018-12-05T06:34:35.279Z,21.64
2018-12-05T06:37:04.681Z,21.65
2018-12-05T06:39:34.099Z,21.69
2018-12-05T06:42:03.488Z,21.70
2018-12-05T06:44:32.893Z,21.72
2018-12-05T06:47:02.400Z,21.72
2018-12-05T06:49:31.832Z,21.74
2018-12-05T06:52:01.237Z,21.75
2018-12-05T06:54:30.646Z,21.77
2018-12-05T06:57:00.041Z,21.78
2018-12-05T06:59:29.461Z,21.79
2018-12-05T07:01:58.975Z,21.81
2018-12-05T07:04:28.409Z,21.82
2018-12-05T07:07:04.364Z,21.83
2018-12-05T07:09:33.782Z,21.85
2018-12-05T07:12:03.193Z,21.87
2018-12-05T07:14:32.602Z,21.88
2018-12-05T07:17:02.000Z,21.90
2018-12-05T07:19:31.396Z,21.91
2018-12-05T07:22:00.796Z,21.92
2018-12-05T07:24:30.183Z,21.94
2018-12-05T07:26:59.600Z,21.95
2018-12-05T07:29:29.000Z,21.96
2018-12-05T07:31:58.445Z,21.97
2018-12-05T07:34:27.844Z,21.97
2018-12-05T07:36:57.283Z,21.99
2018-12-05T07:39:26.672Z,21.99
2018-12-05T07:41:56.111Z,22.01
2018-12-05T07:44:25.494Z,22.02
2018-12-05T07:46:54.923Z,22.02
2018-12-05T07:49:24.680Z,22.03
2018-12-05T07:51:54.090Z,22.04
2018-12-05T07:54:23.492Z,22.05
2018-12-05T07:56:53.065Z,22.05
2018-12-05T07:59:22.480Z,22.07
2018-12-05T08:01:52.036Z,22.06
2018-12-05T08:04:21.497Z,22.07
2018-12-05T08:06:50.992Z,22.08
2018-12-05T08:09:20.422Z,22.07
2018-12-05T08:11:49.848Z,22.08
2018-12-05T08:14:19.252Z,22.10
2018-12-05T08:16:48.749Z,22.10
2018-12-05T08:19:18.152Z,22.11
2018-12-05T08:21:47.661Z,22.11
2018-12-05T08:24:17.059Z,22.11
2018-12-05T08:26:46.460Z,22.12
2018-12-05T08:29:15.866Z,22.12
2018-12-05T08:31:45.248Z,22.14
2018-12-05T08:34:14.655Z,22.13
2018-12-05T08:36:44.069Z,22.15
2018-12-05T08:39:13.473Z,22.15
2018-12-05T08:41:42.865Z,22.15
2018-12-05T08:44:12.270Z,22.16
2018-12-05T08:46:42.067Z,22.16
2018-12-05T08:49:11.495Z,22.17
2018-12-05T08:51:40.895Z,22.17
2018-12-05T08:54:10.651Z,22.18
2018-12-05T08:56:40.089Z,22.18
2018-12-05T08:59:09.782Z,22.19
2018-12-05T09:01:39.165Z,22.21
2018-12-05T09:04:09.389Z,22.20
2018-12-05T09:06:38.820Z,22.20
2018-12-05T09:09:08.260Z,22.21
2018-12-05T09:11:37.633Z,22.20
2018-12-05T09:14:07.133Z,22.21
2018-12-05T09:16:36.537Z,22.22
2018-12-05T09:19:06.021Z,22.23
2018-12-05T09:21:35.396Z,22.23
2018-12-05T09:24:04.810Z,22.22
2018-12-05T09:26:34.234Z,22.23
2018-12-05T09:29:03.783Z,22.23
2018-12-05T09:31:33.164Z,22.23
2018-12-05T09:34:02.560Z,22.24
2018-12-05T09:36:31.981Z,22.24
2018-12-05T09:39:01.420Z,22.26
2018-12-05T09:41:32.014Z,22.25
2018-12-05T09:44:01.435Z,22.26
2018-12-05T09:46:31.932Z,22.25
2018-12-05T09:49:01.336Z,22.27
2018-12-05T09:51:30.732Z,22.26
2018-12-05T09:54:00.110Z,22.27
2018-12-05T09:56:30.564Z,22.26
2018-12-05T09:58:59.957Z,22.27
2018-12-05T10:01:29.354Z,22.27
2018-12-05T10:03:58.748Z,22.27
2018-12-05T10:06:28.147Z,22.28
2018-12-05T10:08:57.528Z,22.28
2018-12-05T10:11:26.915Z,22.28
2018-12-05T10:13:56.361Z,22.28
2018-12-05T10:16:25.807Z,22.28
2018-12-05T10:18:55.205Z,22.28
2018-12-05T10:21:24.625Z,22.28
2018-12-05T10:23:54.010Z,22.28
2018-12-05T10:26:23.396Z,22.29
2018-12-05T10:28:52.899Z,22.29
2018-12-05T10:31:22.312Z,22.28
2018-12-05T10:33:51.700Z,22.29
2018-12-05T10:36:21.240Z,22.28
2018-12-05T10:38:50.617Z,22.30
2018-12-05T10:41:20.038Z,22.30
2018-12-05T10:43:49.417Z,22.29
2018-12-05T10:46:18.840Z,22.29
2018-12-05T10:48:48.220Z,22.30
2018-12-05T10:51:17.620Z,22.30
2018-12-05T10:53:47.047Z,22.30
2018-12-05T10:56:16.453Z,22.31
2018-12-05T10:58:45.860Z,22.30
2018-12-05T11:01:20.468Z,22.30
2018-12-05T11:03:49.944Z,22.28
2018-12-05T11:06:24.416Z,22.30
2018-12-05T11:08:59.036Z,22.30
2018-12-05T11:11:33.600Z,22.29
2018-12-05T11:14:08.149Z,22.30
2018-12-05T11:16:41.696Z,22.29
2018-12-05T11:19:16.336Z,22.28
2018-12-05T11:21:50.972Z,22.29
2018-12-05T11:24:37.640Z,22.29
2018-12-05T11:27:07.293Z,22.29
2018-12-05T11:29:36.704Z,22.30
2018-12-05T11:32:06.124Z,22.30
2018-12-05T11:34:35.524Z,22.30
2018-12-05T11:37:04.920Z,22.30
2018-12-05T11:39:34.350Z,22.30
2018-12-05T11:42:03.788Z,22.29
2018-12-05T11:44:33.184Z,22.30
2018-12-05T11:47:02.593Z,22.30
2018-12-05T11:49:32.376Z,22.29
2018-12-05T11:52:01.772Z,22.30
2018-12-05T11:54:31.185Z,22.29
2018-12-05T11:57:00.624Z,22.29
2018-12-05T11:59:30.013Z,22.30
2018-12-05T12:01:59.434Z,22.29
2018-12-05T12:04:28.816Z,22.30
2018-12-05T12:06:58.250Z,22.30
2018-12-05T12:09:27.652Z,22.30
2018-12-05T12:11:57.041Z,22.30
2018-12-05T12:14:26.446Z,22.31
2018-12-05T12:16:55.893Z,22.31
2018-12-05T12:19:25.281Z,22.31
2018-12-05T12:21:54.700Z,22.31
2018-12-05T12:24:24.110Z,22.31
2018-12-05T12:26:53.515Z,22.30
2018-12-05T12:29:22.925Z,22.30
2018-12-05T12:31:52.369Z,22.30
2018-12-05T12:34:21.752Z,22.30
2018-12-05T12:36:51.188Z,22.30
2018-12-05T12:39:20.581Z,22.29
2018-12-05T12:41:50.017Z,22.29
2018-12-05T12:44:19.412Z,22.29
2018-12-05T12:46:48.826Z,22.29
2018-12-05T12:49:18.227Z,22.30
2018-12-05T12:51:47.648Z,22.30
2018-12-05T12:54:17.046Z,22.29
2018-12-05T12:56:46.442Z,22.29
2018-12-05T12:59:15.826Z,22.29
2018-12-05T13:01:45.225Z,22.28
2018-12-05T13:04:14.616Z,22.29
2018-12-05T13:06:44.010Z,22.28
2018-12-05T13:09:13.408Z,22.28
2018-12-05T13:11:43.889Z,22.26
2018-12-05T13:14:13.504Z,22.26
2018-12-05T13:16:42.952Z,22.27
2018-12-05T13:19:12.446Z,22.27
2018-12-05T13:21:41.836Z,22.26
2018-12-05T13:24:11.301Z,22.27
2018-12-05T13:26:40.684Z,22.28
2018-12-05T13:29:10.084Z,22.28
2018-12-05T13:31:39.544Z,22.30
2018-12-05T13:34:09.017Z,22.31
2018-12-05T13:36:38.416Z,22.31
2018-12-05T13:39:08.784Z,22.29
2018-12-05T13:41:39.641Z,22.30
2018-12-05T13:44:09.119Z,22.31
2018-12-05T13:46:38.549Z,22.32
2018-12-05T13:49:09.152Z,22.32
2018-12-05T13:51:38.568Z,22.31
2018-12-05T13:54:08.032Z,22.31
2018-12-05T13:56:37.408Z,22.31
2018-12-05T13:59:06.852Z,22.30
2018-12-05T14:01:36.313Z,22.31
2018-12-05T14:04:05.770Z,22.30
2018-12-05T14:06:35.212Z,22.30
2018-12-05T14:09:06.116Z,22.31
2018-12-05T14:11:36.588Z,22.31
2018-12-05T14:14:06.040Z,22.33
2018-12-05T14:16:35.448Z,22.33
2018-12-05T14:19:04.849Z,22.33
2018-12-05T14:21:34.266Z,22.33
2018-12-05T14:24:03.709Z,22.34
2018-12-05T14:26:33.161Z,22.34
2018-12-05T14:29:03.699Z,22.34
2018-12-05T14:31:33.120Z,22.33
2018-12-05T14:34:02.502Z,22.33
2018-12-05T14:36:31.927Z,22.32
2018-12-05T14:39:01.348Z,22.31
2018-12-05T14:41:32.026Z,22.33
2018-12-05T14:44:02.044Z,22.27
2018-12-05T14:46:32.162Z,22.28
2018-12-05T14:49:01.593Z,22.29
2018-12-05T14:51:31.024Z,22.28
2018-12-05T14:54:00.412Z,22.29
2018-12-05T14:56:29.851Z,22.30
2018-12-05T14:58:59.267Z,22.31
2018-12-05T15:01:28.709Z,22.31
2018-12-05T15:03:58.125Z,22.32
2018-12-05T15:06:27.533Z,22.33
2018-12-05T15:08:56.967Z,22.35
2018-12-05T15:11:27.002Z,22.35
2018-12-05T15:13:56.425Z,22.35
2018-12-05T15:16:25.809Z,22.34
2018-12-05T15:18:55.248Z,22.35
2018-12-05T15:21:24.656Z,22.35
2018-12-05T15:23:54.078Z,22.35
2018-12-05T15:26:23.476Z,22.34
2018-12-05T15:28:52.902Z,22.34
2018-12-05T15:31:22.265Z,22.34
2018-12-05T15:33:51.686Z,22.34
2018-12-05T15:36:21.072Z,22.34
2018-12-05T15:38:50.491Z,22.33
2018-12-05T15:41:19.930Z,22.33
2018-12-05T15:43:49.381Z,22.33
2018-12-05T15:46:18.756Z,22.34
2018-12-05T15:48:48.184Z,22.33
2018-12-05T15:51:17.581Z,22.34
2018-12-05T15:53:46.984Z,22.33
2018-12-05T15:56:16.348Z,22.33
2018-12-05T15:58:45.785Z,22.32
2018-12-05T16:01:15.178Z,22.32
2018-12-05T16:03:44.573Z,22.34
2018-12-05T16:06:13.997Z,22.32
2018-12-05T16:08:43.416Z,22.32
2018-12-05T16:11:12.809Z,22.32
2018-12-05T16:13:42.188Z,22.32
2018-12-05T16:16:11.560Z,22.31
2018-12-05T16:18:41.040Z,22.31
2018-12-05T16:21:10.433Z,22.31
2018-12-05T16:23:39.815Z,22.31
2018-12-05T16:26:10.831Z,22.31
2018-12-05T16:28:40.607Z,22.30
2018-12-05T16:31:10.000Z,22.30
2018-12-05T16:33:39.401Z,22.30
2018-12-05T16:36:11.227Z,22.30
2018-12-05T16:38:41.032Z,22.30
2018-12-05T16:41:11.454Z,22.30
2018-12-05T16:43:40.868Z,22.29
2018-12-05T16:46:10.284Z,22.29
2018-12-05T16:48:39.661Z,22.29
2018-12-05T16:51:09.059Z,22.27
2018-12-05T16:53:38.464Z,22.27
2018-12-05T16:56:07.931Z,22.27
2018-12-05T16:58:37.425Z,22.28
2018-12-05T17:01:06.864Z,22.27
2018-12-05T17:03:36.251Z,22.27
2018-12-05T17:06:05.723Z,22.26
2018-12-05T17:08:35.100Z,22.26
2018-12-05T17:11:04.497Z,22.23
2018-12-05T17:13:35.961Z,22.23
2018-12-05T17:16:05.370Z,22.24
2018-12-05T17:18:34.780Z,22.23
2018-12-05T17:21:04.170Z,22.23
2018-12-05T17:23:33.589Z,22.20
2018-12-05T17:26:02.988Z,22.21
2018-12-05T17:28:32.428Z,22.20
2018-12-05T17:31:01.815Z,22.21
2018-12-05T17:33:31.241Z,22.21
2018-12-05T17:36:00.628Z,22.20
2018-12-05T17:38:30.049Z,22.20
2018-12-05T17:40:59.455Z,22.20
2018-12-05T17:43:28.888Z,22.21
2018-12-05T17:45:58.281Z,22.21
2018-12-05T17:48:27.705Z,22.21
2018-12-05T17:50:57.132Z,22.21
2018-12-05T17:53:26.712Z,22.21
2018-12-05T17:55:56.150Z,22.20
2018-12-05T17:58:25.572Z,22.20
2018-12-05T18:00:54.987Z,22.21
2018-12-05T18:03:24.410Z,22.22
2018-12-05T18:05:53.812Z,22.21
2018-12-05T18:08:23.224Z,22.22
2018-12-05T18:10:52.603Z,22.23
2018-12-05T18:13:22.033Z,22.22
2018-12-05T18:15:51.413Z,22.23
2018-12-05T18:18:21.959Z,22.23
2018-12-05T18:20:51.552Z,22.23
2018-12-05T18:23:20.999Z,22.23
2018-12-05T18:25:52.347Z,22.24
2018-12-05T18:28:22.664Z,22.24
2018-12-05T18:30:52.048Z,22.23
2018-12-05T18:33:21.473Z,22.22
2018-12-05T18:35:50.904Z,22.20
2018-12-05T18:38:20.313Z,22.19
2018-12-05T18:40:49.754Z,22.20
2018-12-05T18:43:19.336Z,22.20
2018-12-05T18:45:48.868Z,22.21
2018-12-05T18:48:18.632Z,22.20
2018-12-05T18:50:48.105Z,22.20
2018-12-05T18:53:17.605Z,22.19
2018-12-05T18:55:47.096Z,22.20
2018-12-05T18:58:16.572Z,22.18
2018-12-05T19:00:46.027Z,22.18
2018-12-05T19:03:15.448Z,22.21
2018-12-05T19:05:46.247Z,22.24
2018-12-05T19:08:15.962Z,22.25
2018-12-05T19:10:45.453Z,22.26
2018-12-05T19:13:15.230Z,22.28
2018-12-05T19:15:44.653Z,22.31
2018-12-05T19:18:14.058Z,22.33
2018-12-05T19:20:43.472Z,22.35
2018-12-05T19:23:13.225Z,22.37
2018-12-05T19:25:42.750Z,22.38
2018-12-05T19:28:12.181Z,22.39
2018-12-05T19:30:41.597Z,22.40
2018-12-05T19:33:11.608Z,22.41
2018-12-05T19:35:41.021Z,22.44
2018-12-05T19:38:11.105Z,22.45
2018-12-05T19:40:41.191Z,22.46
2018-12-05T19:43:11.532Z,22.47
2018-12-05T19:45:41.688Z,22.48
2018-12-05T19:48:11.191Z,22.49
2018-12-05T19:50:40.633Z,22.50
2018-12-05T19:53:10.085Z,22.52
2018-12-05T19:55:39.589Z,22.54
2018-12-05T19:58:10.620Z,22.54
2018-12-05T20:00:40.160Z,22.56
2018-12-05T20:03:09.585Z,22.57
2018-12-05T20:05:39.024Z,22.57
2018-12-05T20:08:08.986Z,22.58
2018-12-05T20:10:38.394Z,22.60
2018-12-05T20:13:07.839Z,22.60
2018-12-05T20:15:37.282Z,22.59
2018-12-05T20:18:06.758Z,22.61
2018-12-05T20:20:36.859Z,22.61
2018-12-05T20:23:06.326Z,22.61
2018-12-05T20:25:35.745Z,22.62
2018-12-05T20:28:05.327Z,22.64
2018-12-05T20:30:34.739Z,22.64
2018-12-05T20:33:04.165Z,22.66
2018-12-05T20:35:33.588Z,22.67
2018-12-05T20:38:03.588Z,22.68
2018-12-05T20:40:33.052Z,22.69
2018-12-05T20:43:02.476Z,22.69
2018-12-05T20:45:31.924Z,22.70
2018-12-05T20:48:01.333Z,22.70
2018-12-05T20:50:30.796Z,22.71
2018-12-05T20:53:00.296Z,22.72
2018-12-05T20:55:29.735Z,22.73
2018-12-05T20:57:59.147Z,22.73
2018-12-05T21:00:28.591Z,22.73
2018-12-05T21:02:58.024Z,22.74
2018-12-05T21:05:27.485Z,22.75
2018-12-05T21:07:56.905Z,22.76
2018-12-05T21:10:26.331Z,22.76
2018-12-05T21:12:55.793Z,22.78
2018-12-05T21:15:25.218Z,22.79
2018-12-05T21:17:54.608Z,22.80
2018-12-05T21:20:24.072Z,22.81
2018-12-05T21:22:54.449Z,22.81
2018-12-05T21:25:23.925Z,22.82
2018-12-05T21:27:53.394Z,22.82
2018-12-05T21:30:22.810Z,22.82
2018-12-05T21:32:52.797Z,22.83
2018-12-05T21:35:22.251Z,22.83
2018-12-05T21:37:51.680Z,22.85
2018-12-05T21:40:22.140Z,22.87
2018-12-05T21:42:51.585Z,22.87
2018-12-05T21:45:21.011Z,22.89
2018-12-05T21:47:50.437Z,22.89
2018-12-05T21:50:19.840Z,22.89
2018-12-05T21:52:49.269Z,22.90
2018-12-05T21:55:19.642Z,22.90
2018-12-05T21:57:49.057Z,22.91
2018-12-05T22:00:19.009Z,22.91
2018-12-05T22:02:48.436Z,22.91
2018-12-05T22:05:17.992Z,22.90
2018-12-05T22:07:47.422Z,22.91
2018-12-05T22:10:16.826Z,22.91
2018-12-05T22:12:46.267Z,22.90
2018-12-05T22:15:15.649Z,22.91
2018-12-05T22:17:45.057Z,22.90
2018-12-05T22:20:14.489Z,22.91
2018-12-05T22:22:43.933Z,22.91
2018-12-05T22:25:13.337Z,22.90
2018-12-05T22:27:42.759Z,22.90
2018-12-05T22:30:12.141Z,22.89
2018-12-05T22:32:41.543Z,22.91
2018-12-05T22:35:10.949Z,22.90
2018-12-05T22:37:40.341Z,22.89
2018-12-05T22:40:10.180Z,22.90
2018-12-05T22:42:39.641Z,22.89
2018-12-05T22:45:09.067Z,22.88
2018-12-05T22:47:38.444Z,22.88
2018-12-05T22:50:08.637Z,22.87
2018-12-05T22:52:38.109Z,22.86
2018-12-05T22:55:07.559Z,22.86
2018-12-05T22:57:36.991Z,22.84
2018-12-05T23:00:11.097Z,22.85
2018-12-05T23:02:40.496Z,22.83
2018-12-05T23:05:09.988Z,22.83
2018-12-05T23:07:39.407Z,22.83
2018-12-05T23:10:08.847Z,22.82
2018-12-05T23:12:38.254Z,22.79
2018-12-05T23:15:07.850Z,22.80
2018-12-05T23:17:37.283Z,22.77
2018-12-05T23:20:07.145Z,22.76
2018-12-05T23:22:36.544Z,22.75
2018-12-05T23:25:05.992Z,22.75
2018-12-05T23:27:35.393Z,22.74
2018-12-05T23:30:06.175Z,22.73
2018-12-05T23:32:35.588Z,22.72
2018-12-05T23:35:05.112Z,22.71
2018-12-05T23:37:34.541Z,22.70
2018-12-05T23:40:03.962Z,22.69
2018-12-05T23:42:33.424Z,22.67
2018-12-05T23:45:02.877Z,22.67
2018-12-05T23:47:32.313Z,22.67
2018-12-05T23:50:01.725Z,22.65
2018-12-05T23:52:31.148Z,22.65
2018-12-05T23:55:00.576Z,22.64
2018-12-05T23:57:31.065Z,22.64
